createdAt,value
2022-12-08T00:00:51.327Z,15.53
2022-12-08T00:03:21.039Z,16.85
2022-12-08T00:06:04.386Z,16.40
2022-12-08T00:08:46.446Z,15.03
2022-12-08T00:11:16.478Z,15.55
2022-12-08T00:13:45.969Z,13.90
2022-12-08T00:16:18.052Z,15.80
2022-12-08T00:18:47.807Z,14.18
2022-12-08T00:21:17.362Z,16.37
2022-12-08T00:23:47.112Z,13.87
2022-12-08T00:26:16.615Z,13.63
2022-12-08T00:28:46.174Z,13.90
2022-12-08T00:31:18.322Z,15.60
2022-12-08T00:33:48.004Z,13.85
2022-12-08T00:36:18.218Z,13.60
2022-12-08T00:38:48.455Z,12.33
2022-12-08T00:41:40.013Z,14.77
2022-12-08T00:44:09.909Z,13.20
2022-12-08T00:46:42.369Z,12.50
2022-12-08T00:49:12.501Z,12.20
2022-12-08T00:51:42.105Z,13.03
2022-12-08T00:54:11.887Z,14.60
2022-12-08T00:56:41.530Z,11.17
2022-12-08T00:59:11.275Z,12.00
2022-12-08T01:01:43.929Z,13.07
2022-12-08T01:06:46.115Z,12.33
2022-12-08T01:09:17.885Z,11.27
2022-12-08T01:11:47.916Z,13.47
2022-12-08T01:14:17.822Z,13.73
2022-12-08T01:16:50.185Z,14.37
2022-12-08T01:19:20.562Z,14.55
2022-12-08T01:21:50.395Z,13.70
2022-12-08T01:24:22.198Z,14.73
2022-12-08T01:26:52.855Z,12.67
2022-12-08T01:29:22.492Z,14.87
2022-12-08T01:31:54.567Z,14.67
2022-12-08T01:34:24.113Z,15.75
2022-12-08T01:36:53.761Z,15.77
2022-12-08T01:39:23.331Z,18.43
2022-12-08T01:41:52.886Z,13.67
2022-12-08T01:44:52.539Z,16.07
2022-12-08T01:47:26.840Z,16.43
2022-12-08T01:49:56.513Z,17.23
2022-12-08T01:52:29.498Z,19.03
2022-12-08T01:55:03.324Z,18.13
2022-12-08T01:57:37.634Z,17.13
2022-12-08T02:00:10.534Z,14.27
2022-12-08T02:02:52.748Z,17.33
2022-12-08T02:05:25.050Z,15.27
2022-12-08T02:07:55.197Z,16.42
2022-12-08T02:10:26.703Z,16.80
2022-12-08T02:12:59.235Z,16.97
2022-12-08T02:15:36.711Z,16.70
2022-12-08T02:18:23.290Z,15.83
2022-12-08T02:20:59.529Z,16.33
2022-12-08T02:23:39.340Z,14.03
2022-12-08T02:26:41.567Z,17.33
2022-12-08T02:29:38.357Z,17.20
2022-12-08T02:32:26.549Z,18.83
2022-12-08T02:35:02.326Z,16.23
2022-12-08T02:37:37.238Z,17.60
2022-12-08T02:40:16.636Z,16.50
2022-12-08T02:42:49.715Z,15.90
2022-12-08T02:45:25.305Z,16.57
2022-12-08T02:47:55.409Z,18.03
2022-12-08T02:50:27.555Z,14.03
2022-12-08T02:52:57.778Z,14.70
2022-12-08T02:55:30.338Z,16.37
2022-12-08T02:58:14.227Z,16.50
2022-12-08T03:01:00.008Z,15.00
2022-12-08T03:03:38.044Z,14.87
2022-12-08T03:06:19.663Z,15.07
2022-12-08T03:08:54.427Z,14.67
2022-12-08T03:11:27.482Z,17.33
2022-12-08T03:14:02.085Z,16.43
2022-12-08T03:16:33.577Z,16.17
2022-12-08T03:19:06.327Z,17.37
2022-12-08T03:24:12.656Z,17.42
2022-12-08T03:26:48.539Z,14.23
2022-12-08T03:29:18.234Z,16.87
2022-12-08T03:31:55.542Z,15.60
2022-12-08T03:34:28.285Z,14.53
2022-12-08T03:39:32.369Z,16.00
2022-12-08T03:42:01.946Z,14.87
2022-12-08T03:44:31.726Z,15.87
2022-12-08T03:47:01.308Z,15.53
2022-12-08T03:49:30.860Z,16.23
2022-12-08T03:52:03.057Z,15.23
2022-12-08T03:54:32.591Z,13.07
2022-12-08T03:57:02.173Z,17.47
2022-12-08T03:59:31.697Z,16.60
2022-12-08T04:02:01.292Z,17.37
2022-12-08T04:04:31.197Z,15.67
2022-12-08T04:07:03.362Z,15.43
2022-12-08T04:09:33.067Z,15.90
2022-12-08T04:12:02.612Z,17.33
2022-12-08T04:14:32.243Z,15.00
2022-12-08T04:17:01.820Z,16.50
2022-12-08T04:19:31.580Z,17.30
2022-12-08T04:22:03.689Z,16.87
2022-12-08T04:24:33.166Z,16.00
2022-12-08T04:27:02.701Z,16.27
2022-12-08T04:29:32.230Z,17.97
2022-12-08T04:32:01.701Z,16.40
2022-12-08T04:34:31.183Z,19.30
2022-12-08T04:37:03.242Z,17.20
2022-12-08T04:39:32.718Z,16.65
2022-12-08T04:42:02.322Z,20.33
2022-12-08T04:44:31.783Z,16.33
2022-12-08T04:47:01.367Z,15.53
2022-12-08T04:49:30.959Z,17.20
2022-12-08T04:52:03.062Z,17.13
2022-12-08T04:54:32.679Z,19.08
2022-12-08T04:57:02.189Z,15.90
2022-12-08T04:59:31.709Z,16.17
2022-12-08T05:02:01.373Z,19.27
2022-12-08T05:04:30.993Z,14.43
2022-12-08T05:07:03.045Z,15.67
2022-12-08T05:09:32.703Z,16.58
2022-12-08T05:12:02.221Z,16.83
2022-12-08T05:14:31.733Z,15.17
2022-12-08T05:17:06.249Z,15.27
2022-12-08T05:19:38.750Z,15.33
2022-12-08T05:22:10.789Z,14.40
2022-12-08T05:24:47.009Z,14.82
2022-12-08T05:27:17.063Z,14.90
2022-12-08T05:29:48.150Z,13.70
2022-12-08T05:32:17.664Z,14.47
2022-12-08T05:34:47.318Z,14.43
2022-12-08T05:37:19.453Z,14.13
2022-12-08T05:39:49.029Z,13.90
2022-12-08T05:42:24.382Z,15.10
2022-12-08T05:44:54.393Z,15.43
2022-12-08T05:47:23.896Z,13.10
2022-12-08T05:49:53.402Z,16.20
2022-12-08T05:52:25.507Z,13.37
2022-12-08T05:54:55.006Z,13.45
2022-12-08T05:57:24.581Z,13.90
2022-12-08T05:59:54.145Z,13.73
2022-12-08T06:02:23.785Z,15.37
2022-12-08T06:04:53.362Z,15.27
2022-12-08T06:07:25.529Z,15.20
2022-12-08T06:09:55.107Z,17.00
2022-12-08T06:12:24.627Z,16.67
2022-12-08T06:14:54.331Z,18.87
2022-12-08T06:17:23.936Z,17.10
2022-12-08T06:19:53.426Z,16.10
2022-12-08T06:22:25.497Z,17.90
2022-12-08T06:24:55.054Z,16.75
2022-12-08T06:27:24.589Z,14.87
2022-12-08T06:29:54.187Z,16.07
2022-12-08T06:32:27.397Z,16.67
2022-12-08T06:34:57.632Z,16.70
2022-12-08T06:37:30.010Z,17.23
2022-12-08T06:39:59.655Z,14.60
2022-12-08T06:42:41.674Z,16.27
2022-12-08T06:45:13.066Z,16.52
2022-12-08T06:47:42.651Z,14.50
2022-12-08T06:50:15.867Z,14.43
2022-12-08T06:53:00.775Z,14.60
2022-12-08T06:58:24.116Z,15.10
2022-12-08T07:00:53.879Z,13.47
2022-12-08T07:03:23.696Z,15.17
2022-12-08T07:05:53.409Z,14.80
2022-12-08T07:08:25.893Z,19.13
2022-12-08T07:10:55.579Z,16.35
2022-12-08T07:13:25.201Z,15.43
2022-12-08T07:15:55.082Z,16.37
2022-12-08T07:18:24.700Z,15.83
2022-12-08T07:20:54.241Z,15.87
2022-12-08T07:23:26.368Z,14.10
2022-12-08T07:25:55.969Z,15.85
2022-12-08T07:28:25.624Z,14.67
2022-12-08T07:30:55.196Z,12.70
2022-12-08T07:33:24.814Z,14.70
2022-12-08T07:35:58.395Z,14.87
2022-12-08T07:38:31.643Z,14.93
2022-12-08T07:41:02.587Z,16.00
2022-12-08T07:43:32.172Z,16.57
2022-12-08T07:46:01.843Z,16.17
2022-12-08T07:48:31.355Z,19.00
2022-12-08T07:51:03.627Z,15.17
2022-12-08T07:53:36.002Z,15.27
2022-12-08T07:56:08.776Z,14.85
2022-12-08T08:01:08.302Z,16.27
2022-12-08T08:03:38.069Z,16.03
2022-12-08T08:06:08.506Z,16.17
2022-12-08T08:08:40.600Z,17.50
2022-12-08T08:11:18.938Z,16.10
2022-12-08T08:13:50.734Z,17.83
2022-12-08T08:16:21.611Z,17.67
2022-12-08T08:18:51.872Z,18.93
2022-12-08T08:24:15.682Z,17.30
2022-12-08T08:26:45.250Z,17.50
2022-12-08T08:29:14.856Z,18.60
2022-12-08T08:31:44.429Z,19.17
2022-12-08T08:34:14.147Z,17.67
2022-12-08T08:36:43.935Z,18.13
2022-12-08T08:39:16.236Z,18.30
2022-12-08T08:41:46.086Z,19.35
2022-12-08T08:44:16.173Z,18.77
2022-12-08T08:46:45.776Z,19.50
2022-12-08T08:49:15.387Z,20.60
2022-12-08T08:51:45.199Z,20.87
2022-12-08T08:54:17.386Z,18.73
2022-12-08T08:56:48.270Z,18.23
2022-12-08T08:59:17.954Z,19.70
2022-12-08T09:01:47.600Z,17.90
2022-12-08T09:04:17.423Z,17.93
2022-12-08T09:06:48.136Z,18.57
2022-12-08T09:09:20.829Z,17.90
2022-12-08T09:14:19.651Z,17.27
2022-12-08T09:16:49.226Z,16.23
2022-12-08T09:19:18.774Z,15.60
2022-12-08T09:21:48.507Z,16.83
2022-12-08T09:24:20.622Z,15.40
2022-12-08T09:26:50.176Z,16.00
2022-12-08T09:29:19.992Z,14.50
2022-12-08T09:31:49.728Z,17.20
2022-12-08T09:34:19.713Z,16.67
2022-12-08T09:36:49.773Z,16.30
2022-12-08T09:39:22.682Z,18.17
2022-12-08T09:42:01.483Z,15.98
2022-12-08T09:44:44.833Z,15.20
2022-12-08T09:47:23.996Z,16.80
2022-12-08T09:50:04.508Z,17.30
2022-12-08T09:52:39.201Z,16.40
2022-12-08T09:55:18.300Z,17.03
2022-12-08T09:57:53.076Z,17.30
2022-12-08T10:00:25.997Z,16.93
2022-12-08T10:02:55.546Z,15.00
2022-12-08T10:05:26.996Z,15.13
2022-12-08T10:08:06.554Z,14.43
2022-12-08T10:10:44.550Z,14.93
2022-12-08T10:13:22.227Z,14.50
2022-12-08T10:16:00.300Z,15.73
2022-12-08T10:18:32.983Z,15.93
2022-12-08T10:21:18.881Z,14.73
2022-12-08T10:23:52.898Z,15.07
2022-12-08T10:26:25.188Z,16.80
2022-12-08T10:29:01.148Z,13.80
2022-12-08T10:31:32.712Z,13.30
2022-12-08T10:34:04.438Z,13.57
2022-12-08T10:36:48.922Z,14.30
2022-12-08T10:39:36.124Z,14.43
2022-12-08T10:42:11.647Z,12.47
2022-12-08T10:44:55.827Z,13.37
2022-12-08T10:47:28.232Z,14.03
2022-12-08T10:50:15.098Z,14.95
2022-12-08T10:52:44.601Z,13.07
2022-12-08T10:55:19.450Z,14.67
2022-12-08T10:57:51.718Z,14.27
2022-12-08T11:00:23.923Z,15.32
2022-12-08T11:02:56.746Z,16.00
2022-12-08T11:05:30.569Z,15.53
2022-12-08T11:08:00.426Z,14.93
2022-12-08T11:10:37.087Z,14.03
2022-12-08T11:13:19.981Z,16.30
2022-12-08T11:15:49.734Z,13.50
2022-12-08T11:18:28.734Z,13.60
2022-12-08T11:21:09.673Z,13.07
2022-12-08T11:23:40.412Z,14.23
2022-12-08T11:26:19.285Z,14.50
2022-12-08T11:28:51.387Z,14.60
2022-12-08T11:31:30.382Z,14.98
2022-12-08T11:34:00.005Z,13.37
2022-12-08T11:36:34.214Z,12.73
2022-12-08T11:39:07.215Z,12.53
2022-12-08T11:41:41.585Z,12.83
2022-12-08T11:44:28.501Z,11.80
2022-12-08T11:47:00.940Z,12.23
2022-12-08T11:49:37.020Z,12.77
2022-12-08T11:52:15.661Z,11.67
2022-12-08T11:54:50.671Z,12.57
2022-12-08T11:57:20.947Z,11.53
2022-12-08T11:59:54.795Z,11.33
2022-12-08T12:02:27.371Z,10.40
2022-12-08T12:05:02.133Z,11.77
2022-12-08T12:07:49.082Z,11.87
2022-12-08T12:10:39.697Z,11.73
2022-12-08T12:13:22.009Z,10.07
2022-12-08T12:16:38.593Z,10.85
2022-12-08T12:19:14.913Z,10.90
2022-12-08T12:21:47.431Z,10.57
2022-12-08T12:24:26.068Z,12.82
2022-12-08T12:27:02.318Z,12.40
2022-12-08T12:29:34.929Z,10.47
2022-12-08T12:32:11.446Z,11.43
2022-12-08T12:34:51.060Z,11.27
2022-12-08T12:37:24.376Z,11.47
2022-12-08T12:40:00.963Z,10.27
2022-12-08T12:42:44.769Z,10.93
2022-12-08T12:45:32.490Z,11.87
2022-12-08T12:48:27.341Z,11.80
2022-12-08T12:50:57.895Z,11.83
2022-12-08T12:53:52.938Z,11.30
2022-12-08T12:56:50.919Z,10.60
2022-12-08T13:00:08.629Z,12.17
2022-12-08T13:02:41.628Z,10.80
2022-12-08T13:05:19.357Z,13.80
2022-12-08T13:07:55.366Z,9.87
2022-12-08T13:10:28.733Z,11.83
2022-12-08T13:13:17.755Z,13.40
2022-12-08T13:15:53.436Z,10.07
2022-12-08T13:18:26.579Z,10.63
2022-12-08T13:21:08.044Z,9.77
2022-12-08T13:23:49.859Z,9.67
2022-12-08T13:26:22.725Z,11.17
2022-12-08T13:29:17.732Z,10.73
2022-12-08T13:31:51.261Z,11.17
2022-12-08T13:34:32.855Z,11.70
2022-12-08T13:37:20.810Z,11.77
2022-12-08T13:39:54.775Z,11.07
2022-12-08T13:42:32.168Z,12.40
2022-12-08T13:57:06.865Z,12.20
2022-12-08T13:59:46.578Z,13.80
2022-12-08T14:02:20.699Z,12.40
2022-12-08T14:07:42.773Z,12.20
2022-12-08T14:10:20.773Z,13.02
2022-12-08T14:12:57.626Z,13.33
2022-12-08T14:15:31.365Z,13.10
2022-12-08T14:18:05.586Z,12.27
2022-12-08T14:20:57.883Z,14.20
2022-12-08T14:23:26.402Z,16.00
2022-12-08T14:25:59.308Z,12.83
2022-12-08T14:28:28.852Z,14.17
2022-12-08T14:30:58.779Z,13.00
2022-12-08T14:33:29.089Z,14.50
2022-12-08T14:35:59.421Z,14.33
2022-12-08T14:38:29.392Z,15.57
2022-12-08T14:41:09.544Z,14.53
2022-12-08T14:43:41.057Z,15.10
2022-12-08T14:46:23.322Z,14.50
2022-12-08T14:48:53.678Z,13.90
2022-12-08T14:51:30.245Z,15.27
2022-12-08T14:54:02.202Z,16.27
2022-12-08T14:56:39.521Z,16.00
2022-12-08T14:59:15.312Z,14.73
2022-12-08T15:01:45.794Z,16.87
2022-12-08T15:04:21.496Z,14.40
2022-12-08T15:06:55.680Z,16.27
2022-12-08T15:12:08.942Z,13.77
2022-12-08T15:14:39.984Z,15.07
2022-12-08T15:20:04.484Z,15.73
2022-12-08T15:22:34.506Z,15.10
2022-12-08T15:25:04.688Z,16.80
2022-12-08T15:27:49.579Z,15.30
2022-12-08T15:30:20.942Z,14.90
2022-12-08T15:32:52.380Z,16.30
2022-12-08T15:35:22.553Z,16.10
2022-12-08T15:37:52.065Z,15.57
2022-12-08T15:40:27.040Z,15.73
2022-12-08T15:42:59.156Z,16.97
2022-12-08T15:45:33.655Z,17.33
2022-12-08T15:48:03.632Z,15.37
2022-12-08T15:50:33.170Z,16.70
2022-12-08T15:53:02.743Z,18.37
2022-12-08T15:55:38.490Z,16.73
2022-12-08T15:58:53.157Z,16.33
2022-12-08T16:01:16.356Z,16.60
2022-12-08T16:09:32.984Z,17.30
2022-12-08T16:12:15.263Z,16.60
2022-12-08T16:15:47.223Z,16.77
2022-12-08T16:17:38.258Z,17.83
2022-12-08T16:20:09.825Z,17.87
2022-12-08T16:23:07.602Z,17.47
2022-12-08T16:25:46.028Z,17.70
2022-12-08T16:28:52.166Z,18.13
2022-12-08T16:31:17.742Z,18.77
2022-12-08T16:33:50.960Z,17.85
2022-12-08T16:36:20.506Z,17.07
2022-12-08T16:38:50.005Z,17.13
2022-12-08T16:41:33.288Z,17.50
2022-12-08T16:44:05.191Z,19.27
2022-12-08T16:46:37.530Z,17.73
2022-12-08T16:49:07.324Z,18.88
2022-12-08T16:51:36.847Z,16.63
2022-12-08T16:54:06.458Z,17.30
2022-12-08T16:56:35.958Z,17.63
2022-12-08T16:59:05.463Z,18.33
2022-12-08T17:01:37.606Z,17.47
2022-12-08T17:04:30.953Z,18.13
2022-12-08T17:06:57.823Z,17.13
2022-12-08T17:09:28.573Z,17.77
2022-12-08T17:12:03.479Z,18.07
2022-12-08T17:14:35.469Z,18.50
2022-12-08T17:17:07.632Z,18.57
2022-12-08T17:19:37.259Z,19.42
2022-12-08T17:22:07.158Z,17.67
2022-12-08T17:24:36.690Z,20.17
2022-12-08T17:27:06.826Z,20.23
2022-12-08T17:29:37.214Z,16.73
2022-12-08T17:32:09.801Z,17.87
2022-12-08T17:34:39.327Z,20.20
2022-12-08T17:37:08.906Z,18.60
2022-12-08T17:39:39.360Z,17.93
2022-12-08T17:42:09.855Z,18.17
2022-12-08T17:44:39.545Z,19.07
2022-12-08T17:47:11.775Z,17.67
2022-12-08T17:49:41.520Z,18.85
2022-12-08T17:52:11.284Z,18.20
2022-12-08T17:54:41.278Z,18.43
2022-12-08T17:57:10.801Z,17.67
2022-12-08T17:59:40.575Z,18.63
2022-12-08T18:02:15.164Z,17.73
2022-12-08T18:04:44.768Z,18.77
2022-12-08T18:07:14.349Z,19.37
2022-12-08T18:09:43.929Z,20.43
2022-12-08T18:12:13.465Z,22.37
2022-12-08T18:14:43.076Z,18.80
2022-12-08T18:17:15.508Z,20.33
2022-12-08T18:19:45.036Z,16.83
2022-12-08T18:22:16.017Z,17.23
2022-12-08T18:24:47.630Z,20.40
2022-12-08T18:27:17.170Z,19.47
2022-12-08T18:29:46.801Z,17.97
2022-12-08T18:32:22.700Z,18.43
2022-12-08T18:34:52.496Z,19.57
2022-12-08T18:37:22.055Z,24.20
2022-12-08T18:39:51.716Z,18.23
2022-12-08T18:42:28.310Z,19.03
2022-12-08T18:45:02.787Z,18.80
2022-12-08T18:47:36.228Z,20.37
2022-12-08T18:50:06.611Z,23.83
2022-12-08T18:52:36.952Z,25.23
2022-12-08T18:55:07.777Z,24.43
2022-12-08T18:57:39.027Z,21.63
2022-12-08T19:00:12.227Z,23.47
2022-12-08T19:02:45.267Z,20.07
2022-12-08T19:05:16.054Z,18.97
2022-12-08T19:07:45.967Z,19.97
2022-12-08T19:10:16.143Z,22.10
2022-12-08T19:12:45.671Z,22.77
2022-12-08T19:15:15.426Z,21.30
2022-12-08T19:17:47.570Z,20.40
2022-12-08T19:20:17.422Z,19.90
2022-12-08T19:22:46.991Z,18.60
2022-12-08T19:25:16.465Z,21.33
2022-12-08T19:27:46.219Z,21.03
2022-12-08T19:30:17.194Z,21.53
2022-12-08T19:32:49.336Z,19.60
2022-12-08T19:35:19.083Z,20.13
2022-12-08T19:37:48.592Z,20.83
2022-12-08T19:40:30.853Z,19.27
2022-12-08T19:43:12.967Z,17.90
2022-12-08T19:45:42.507Z,20.05
2022-12-08T19:48:14.711Z,18.33
2022-12-08T19:50:44.191Z,22.30
2022-12-08T19:53:15.557Z,18.80
2022-12-08T19:55:46.753Z,22.10
2022-12-08T19:58:16.633Z,22.13
2022-12-08T20:00:46.681Z,21.70
2022-12-08T20:03:21.404Z,21.60
2022-12-08T20:05:53.290Z,22.30
2022-12-08T20:08:22.962Z,20.23
2022-12-08T20:10:56.121Z,20.03
2022-12-08T20:13:38.149Z,23.17
2022-12-08T20:16:08.594Z,21.73
2022-12-08T20:18:42.082Z,20.60
2022-12-08T20:21:12.699Z,23.70
2022-12-08T20:23:42.228Z,17.50
2022-12-08T20:26:17.439Z,21.23
2022-12-08T20:28:47.123Z,21.30
2022-12-08T20:31:24.883Z,22.03
2022-12-08T20:33:57.323Z,22.57
2022-12-08T20:36:26.942Z,19.45
2022-12-08T20:38:57.430Z,21.83
2022-12-08T20:41:27.356Z,20.53
2022-12-08T20:43:56.935Z,21.30
2022-12-08T20:46:26.522Z,22.70
2022-12-08T20:49:01.219Z,24.17
2022-12-08T20:51:32.201Z,20.00
2022-12-08T20:54:02.469Z,21.03
2022-12-08T20:56:32.201Z,22.13
2022-12-08T20:59:02.413Z,23.97
2022-12-08T21:01:32.139Z,20.77
2022-12-08T21:04:04.623Z,22.83
2022-12-08T21:09:04.248Z,22.20
2022-12-08T21:11:34.124Z,21.30
2022-12-08T21:14:03.901Z,22.07
2022-12-08T21:16:33.966Z,22.20
2022-12-08T21:19:06.445Z,24.27
2022-12-08T21:21:36.490Z,22.63
2022-12-08T21:24:06.883Z,23.77
2022-12-08T21:26:36.587Z,25.87
2022-12-08T21:29:06.937Z,24.27
2022-12-08T21:31:36.713Z,26.83
2022-12-08T21:34:08.909Z,25.00
2022-12-08T21:36:38.509Z,24.52
2022-12-08T21:39:12.828Z,26.53
2022-12-08T21:41:55.081Z,27.63
2022-12-08T21:44:24.665Z,23.95
2022-12-08T21:46:55.095Z,24.77
2022-12-08T21:49:27.543Z,25.70
2022-12-08T21:51:57.583Z,25.00
2022-12-08T21:54:27.448Z,25.60
2022-12-08T21:56:57.446Z,24.17
2022-12-08T21:59:27.227Z,27.03
2022-12-08T22:01:56.921Z,26.10
2022-12-08T22:04:29.321Z,25.27
2022-12-08T22:06:59.363Z,25.52
2022-12-08T22:09:29.039Z,25.80
2022-12-08T22:11:58.728Z,24.03
2022-12-08T22:14:28.366Z,23.80
2022-12-08T22:16:57.999Z,24.10
2022-12-08T22:19:30.268Z,27.33
2022-12-08T22:21:59.952Z,22.80
2022-12-08T22:24:29.745Z,25.97
2022-12-08T22:26:59.576Z,25.27
2022-12-08T22:29:29.311Z,25.67
2022-12-08T22:31:59.091Z,22.60
2022-12-08T22:34:31.388Z,24.93
2022-12-08T22:37:01.098Z,24.00
2022-12-08T22:39:30.775Z,25.07
2022-12-08T22:42:00.414Z,25.20
2022-12-08T22:44:30.326Z,24.67
2022-12-08T22:47:00.385Z,24.00
2022-12-08T22:49:32.912Z,25.17
2022-12-08T22:52:02.576Z,25.10
2022-12-08T22:54:32.515Z,27.13
2022-12-08T22:57:02.282Z,24.30
2022-12-08T22:59:33.367Z,25.93
2022-12-08T23:02:03.132Z,24.20
2022-12-08T23:04:35.688Z,28.60
2022-12-08T23:07:06.049Z,24.48
2022-12-08T23:09:35.550Z,26.10
2022-12-08T23:12:05.091Z,28.13
2022-12-08T23:14:34.566Z,26.73
2022-12-08T23:17:06.303Z,23.57
2022-12-08T23:19:41.550Z,22.42
2022-12-08T23:22:11.092Z,23.73
2022-12-08T23:24:40.568Z,24.47
2022-12-08T23:27:10.285Z,26.83
2022-12-08T23:29:40.402Z,22.80
2022-12-08T23:32:09.958Z,26.27
2022-12-08T23:34:42.226Z,24.07
2022-12-08T23:37:11.768Z,22.77
2022-12-08T23:39:41.275Z,26.47
2022-12-08T23:42:11.106Z,23.97
2022-12-08T23:44:40.739Z,25.03
2022-12-08T23:47:10.403Z,24.57
2022-12-08T23:49:42.601Z,24.53
2022-12-08T23:52:14.835Z,24.48
2022-12-08T23:54:44.921Z,24.95
2022-12-08T23:57:14.744Z,23.50
2022-12-08T23:59:44.269Z,24.60
